sensor_id;sensor_type;location;lat;lon;timestamp;P1;durP1;ratioP1;P2;durP2;ratioP2
9801;SDS011;4940;50.900;4.672;2023-04-25T00:00:31;5.60;;;3.08;;
9801;SDS011;4940;50.900;4.672;2023-04-25T00:02:58;11.77;;;4.13;;
9801;SDS011;4940;50.900;4.672;2023-04-25T00:05:25;9.75;;;3.33;;
9801;SDS011;4940;50.900;4.672;2023-04-25T00:07:54;9.65;;;3.50;;
9801;SDS011;4940;50.900;4.672;2023-04-25T00:10:23;8.30;;;4.13;;
9801;SDS011;4940;50.900;4.672;2023-04-25T00:12:50;11.10;;;4.10;;
9801;SDS011;4940;50.900;4.672;2023-04-25T00:15:18;8.50;;;3.45;;
9801;SDS011;4940;50.900;4.672;2023-04-25T00:17:47;10.35;;;4.10;;
9801;SDS011;4940;50.900;4.672;2023-04-25T00:20:14;9.05;;;3.55;;
9801;SDS011;4940;50.900;4.672;2023-04-25T00:22:42;10.43;;;3.97;;
9801;SDS011;4940;50.900;4.672;2023-04-25T00:25:09;8.68;;;3.85;;
9801;SDS011;4940;50.900;4.672;2023-04-25T00:27:38;6.72;;;3.65;;
9801;SDS011;4940;50.900;4.672;2023-04-25T00:30:07;9.18;;;3.75;;
9801;SDS011;4940;50.900;4.672;2023-04-25T00:32:35;10.18;;;3.95;;
9801;SDS011;4940;50.900;4.672;2023-04-25T00:35:03;11.90;;;4.60;;
9801;SDS011;4940;50.900;4.672;2023-04-25T00:37:31;11.93;;;4.22;;
9801;SDS011;4940;50.900;4.672;2023-04-25T00:39:58;12.63;;;4.55;;
9801;SDS011;4940;50.900;4.672;2023-04-25T00:42:25;9.98;;;3.90;;
9801;SDS011;4940;50.900;4.672;2023-04-25T00:44:54;13.38;;;3.88;;
9801;SDS011;4940;50.900;4.672;2023-04-25T00:47:21;8.23;;;3.80;;
9801;SDS011;4940;50.900;4.672;2023-04-25T00:49:50;10.23;;;3.95;;
9801;SDS011;4940;50.900;4.672;2023-04-25T00:52:18;15.68;;;4.30;;
9801;SDS011;4940;50.900;4.672;2023-04-25T00:54:46;8.00;;;4.10;;
9801;SDS011;4940;50.900;4.672;2023-04-25T00:57:13;10.13;;;4.15;;
9801;SDS011;4940;50.900;4.672;2023-04-25T00:59:40;9.55;;;4.93;;
9801;SDS011;4940;50.900;4.672;2023-04-25T01:02:13;9.10;;;4.10;;
9801;SDS011;4940;50.900;4.672;2023-04-25T01:04:40;8.73;;;4.00;;
9801;SDS011;4940;50.900;4.672;2023-04-25T01:07:08;11.13;;;4.18;;
9801;SDS011;4940;50.900;4.672;2023-04-25T01:09:36;10.35;;;4.45;;
9801;SDS011;4940;50.900;4.672;2023-04-25T01:12:04;14.20;;;4.65;;
9801;SDS011;4940;50.900;4.672;2023-04-25T01:14:31;11.38;;;5.00;;
9801;SDS011;4940;50.900;4.672;2023-04-25T01:16:59;12.55;;;4.57;;
9801;SDS011;4940;50.900;4.672;2023-04-25T01:19:27;7.95;;;3.80;;
9801;SDS011;4940;50.900;4.672;2023-04-25T01:21:56;10.05;;;4.47;;
9801;SDS011;4940;50.900;4.672;2023-04-25T01:24:23;11.25;;;4.00;;
9801;SDS011;4940;50.900;4.672;2023-04-25T01:26:51;9.23;;;3.78;;
9801;SDS011;4940;50.900;4.672;2023-04-25T01:29:18;11.75;;;3.75;;
9801;SDS011;4940;50.900;4.672;2023-04-25T01:31:46;8.48;;;4.07;;
9801;SDS011;4940;50.900;4.672;2023-04-25T01:34:14;14.20;;;4.30;;
9801;SDS011;4940;50.900;4.672;2023-04-25T01:36:41;9.50;;;3.35;;
9801;SDS011;4940;50.900;4.672;2023-04-25T01:39:10;12.10;;;3.80;;
9801;SDS011;4940;50.900;4.672;2023-04-25T01:41:37;14.18;;;4.50;;
9801;SDS011;4940;50.900;4.672;2023-04-25T01:44:05;12.80;;;3.83;;
9801;SDS011;4940;50.900;4.672;2023-04-25T01:46:33;8.10;;;3.30;;
9801;SDS011;4940;50.900;4.672;2023-04-25T01:49:00;11.77;;;4.13;;
9801;SDS011;4940;50.900;4.672;2023-04-25T01:51:28;11.52;;;3.17;;
9801;SDS011;4940;50.900;4.672;2023-04-25T01:53:55;5.38;;;3.10;;
9801;SDS011;4940;50.900;4.672;2023-04-25T01:56:24;10.98;;;3.60;;
9801;SDS011;4940;50.900;4.672;2023-04-25T01:58:56;9.18;;;3.45;;
9801;SDS011;4940;50.900;4.672;2023-04-25T02:01:24;9.05;;;3.25;;
9801;SDS011;4940;50.900;4.672;2023-04-25T02:03:51;14.07;;;3.90;;
9801;SDS011;4940;50.900;4.672;2023-04-25T02:06:18;12.45;;;3.83;;
9801;SDS011;4940;50.900;4.672;2023-04-25T02:08:46;9.25;;;4.00;;
9801;SDS011;4940;50.900;4.672;2023-04-25T02:11:13;9.60;;;3.42;;
9801;SDS011;4940;50.900;4.672;2023-04-25T02:13:42;10.27;;;4.10;;
9801;SDS011;4940;50.900;4.672;2023-04-25T02:16:09;13.55;;;3.70;;
9801;SDS011;4940;50.900;4.672;2023-04-25T02:18:37;14.63;;;4.35;;
9801;SDS011;4940;50.900;4.672;2023-04-25T02:21:04;12.88;;;4.03;;
9801;SDS011;4940;50.900;4.672;2023-04-25T02:23:31;11.85;;;3.70;;
9801;SDS011;4940;50.900;4.672;2023-04-25T02:25:59;11.48;;;3.45;;
9801;SDS011;4940;50.900;4.672;2023-04-25T02:28:26;9.77;;;3.97;;
9801;SDS011;4940;50.900;4.672;2023-04-25T02:30:55;7.20;;;3.63;;
9801;SDS011;4940;50.900;4.672;2023-04-25T02:33:22;12.90;;;3.92;;
9801;SDS011;4940;50.900;4.672;2023-04-25T02:35:50;13.13;;;3.97;;
9801;SDS011;4940;50.900;4.672;2023-04-25T02:38:17;9.95;;;4.30;;
9801;SDS011;4940;50.900;4.672;2023-04-25T02:40:44;11.05;;;3.83;;
9801;SDS011;4940;50.900;4.672;2023-04-25T02:43:12;12.38;;;5.15;;
9801;SDS011;4940;50.900;4.672;2023-04-25T02:45:39;12.63;;;4.00;;
9801;SDS011;4940;50.900;4.672;2023-04-25T02:48:08;14.50;;;4.65;;
9801;SDS011;4940;50.900;4.672;2023-04-25T02:50:35;15.63;;;4.50;;
9801;SDS011;4940;50.900;4.672;2023-04-25T02:53:03;12.32;;;4.95;;
9801;SDS011;4940;50.900;4.672;2023-04-25T02:55:30;12.02;;;5.10;;
9801;SDS011;4940;50.900;4.672;2023-04-25T02:57:58;9.55;;;4.32;;
9801;SDS011;4940;50.900;4.672;2023-04-25T03:00:25;13.27;;;5.03;;
9801;SDS011;4940;50.900;4.672;2023-04-25T03:02:53;10.85;;;4.90;;
9801;SDS011;4940;50.900;4.672;2023-04-25T03:05:22;12.23;;;4.85;;
9801;SDS011;4940;50.900;4.672;2023-04-25T03:07:49;9.88;;;5.10;;
9801;SDS011;4940;50.900;4.672;2023-04-25T03:10:16;10.48;;;5.45;;
9801;SDS011;4940;50.900;4.672;2023-04-25T03:12:44;8.10;;;5.03;;
9801;SDS011;4940;50.900;4.672;2023-04-25T03:15:11;10.32;;;4.72;;
9801;SDS011;4940;50.900;4.672;2023-04-25T03:17:39;13.25;;;4.82;;
9801;SDS011;4940;50.900;4.672;2023-04-25T03:20:06;11.00;;;4.68;;
9801;SDS011;4940;50.900;4.672;2023-04-25T03:22:36;11.68;;;4.95;;
9801;SDS011;4940;50.900;4.672;2023-04-25T03:25:03;8.38;;;4.32;;
9801;SDS011;4940;50.900;4.672;2023-04-25T03:27:32;10.57;;;4.60;;
9801;SDS011;4940;50.900;4.672;2023-04-25T03:29:59;13.50;;;5.10;;
9801;SDS011;4940;50.900;4.672;2023-04-25T03:32:26;11.32;;;4.65;;
9801;SDS011;4940;50.900;4.672;2023-04-25T03:34:54;13.70;;;4.55;;
9801;SDS011;4940;50.900;4.672;2023-04-25T03:37:21;11.60;;;4.72;;
9801;SDS011;4940;50.900;4.672;2023-04-25T03:39:50;10.75;;;4.85;;
9801;SDS011;4940;50.900;4.672;2023-04-25T03:42:17;10.57;;;4.38;;
9801;SDS011;4940;50.900;4.672;2023-04-25T03:44:45;12.07;;;4.53;;
9801;SDS011;4940;50.900;4.672;2023-04-25T03:47:12;15.43;;;5.07;;
9801;SDS011;4940;50.900;4.672;2023-04-25T03:49:40;13.77;;;4.65;;
9801;SDS011;4940;50.900;4.672;2023-04-25T03:52:07;8.52;;;4.72;;
9801;SDS011;4940;50.900;4.672;2023-04-25T03:54:35;11.02;;;4.18;;
9801;SDS011;4940;50.900;4.672;2023-04-25T03:57:03;10.70;;;4.35;;
9801;SDS011;4940;50.900;4.672;2023-04-25T03:59:31;11.13;;;4.03;;
9801;SDS011;4940;50.900;4.672;2023-04-25T04:01:58;12.57;;;4.97;;
9801;SDS011;4940;50.900;4.672;2023-04-25T04:04:25;10.05;;;4.80;;
9801;SDS011;4940;50.900;4.672;2023-04-25T04:06:53;10.43;;;4.15;;
9801;SDS011;4940;50.900;4.672;2023-04-25T04:09:20;9.38;;;4.30;;
9801;SDS011;4940;50.900;4.672;2023-04-25T04:11:47;9.43;;;3.95;;
9801;SDS011;4940;50.900;4.672;2023-04-25T04:14:16;7.40;;;3.92;;
9801;SDS011;4940;50.900;4.672;2023-04-25T04:16:44;10.45;;;4.88;;
9801;SDS011;4940;50.900;4.672;2023-04-25T04:19:11;11.68;;;4.57;;
9801;SDS011;4940;50.900;4.672;2023-04-25T04:21:39;7.40;;;4.53;;
9801;SDS011;4940;50.900;4.672;2023-04-25T04:24:06;12.80;;;5.00;;
9801;SDS011;4940;50.900;4.672;2023-04-25T04:26:33;10.20;;;4.97;;
9801;SDS011;4940;50.900;4.672;2023-04-25T04:29:02;12.30;;;5.72;;
9801;SDS011;4940;50.900;4.672;2023-04-25T04:31:30;8.00;;;4.93;;
9801;SDS011;4940;50.900;4.672;2023-04-25T04:33:58;8.43;;;5.15;;
9801;SDS011;4940;50.900;4.672;2023-04-25T04:36:26;13.57;;;6.00;;
9801;SDS011;4940;50.900;4.672;2023-04-25T04:38:54;9.65;;;6.63;;
9801;SDS011;4940;50.900;4.672;2023-04-25T04:41:22;10.85;;;6.60;;
9801;SDS011;4940;50.900;4.672;2023-04-25T04:43:50;13.55;;;6.43;;
9801;SDS011;4940;50.900;4.672;2023-04-25T04:46:18;14.75;;;6.43;;
9801;SDS011;4940;50.900;4.672;2023-04-25T04:48:47;11.77;;;6.93;;
9801;SDS011;4940;50.900;4.672;2023-04-25T04:51:14;8.60;;;6.28;;
9801;SDS011;4940;50.900;4.672;2023-04-25T04:53:41;6.90;;;6.20;;
9801;SDS011;4940;50.900;4.672;2023-04-25T04:56:09;13.70;;;6.40;;
9801;SDS011;4940;50.900;4.672;2023-04-25T04:58:36;12.05;;;6.40;;
9801;SDS011;4940;50.900;4.672;2023-04-25T05:01:04;9.60;;;6.30;;
9801;SDS011;4940;50.900;4.672;2023-04-25T05:03:31;10.93;;;7.00;;
9801;SDS011;4940;50.900;4.672;2023-04-25T05:06:00;9.82;;;6.90;;
9801;SDS011;4940;50.900;4.672;2023-04-25T05:08:27;9.55;;;6.47;;
9801;SDS011;4940;50.900;4.672;2023-04-25T05:10:55;10.43;;;8.25;;
9801;SDS011;4940;50.900;4.672;2023-04-25T05:13:22;12.48;;;7.38;;
9801;SDS011;4940;50.900;4.672;2023-04-25T05:15:49;7.68;;;6.55;;
9801;SDS011;4940;50.900;4.672;2023-04-25T05:18:17;18.30;;;7.85;;
9801;SDS011;4940;50.900;4.672;2023-04-25T05:20:44;13.18;;;8.20;;
9801;SDS011;4940;50.900;4.672;2023-04-25T05:23:13;9.13;;;7.07;;
9801;SDS011;4940;50.900;4.672;2023-04-25T05:25:40;10.67;;;7.63;;
9801;SDS011;4940;50.900;4.672;2023-04-25T05:28:08;10.73;;;7.75;;
9801;SDS011;4940;50.900;4.672;2023-04-25T05:30:35;12.13;;;8.05;;
9801;SDS011;4940;50.900;4.672;2023-04-25T05:33:03;8.82;;;7.90;;
9801;SDS011;4940;50.900;4.672;2023-04-25T05:35:30;13.80;;;8.93;;
9801;SDS011;4940;50.900;4.672;2023-04-25T05:37:57;9.82;;;8.90;;
9801;SDS011;4940;50.900;4.672;2023-04-25T05:40:26;11.70;;;10.38;;
9801;SDS011;4940;50.900;4.672;2023-04-25T05:42:53;15.30;;;10.63;;
9801;SDS011;4940;50.900;4.672;2023-04-25T05:45:21;15.63;;;11.63;;
9801;SDS011;4940;50.900;4.672;2023-04-25T05:47:48;17.38;;;12.63;;
9801;SDS011;4940;50.900;4.672;2023-04-25T05:50:16;13.77;;;12.32;;
9801;SDS011;4940;50.900;4.672;2023-04-25T05:52:43;13.85;;;11.57;;
9801;SDS011;4940;50.900;4.672;2023-04-25T05:55:10;15.13;;;11.80;;
9801;SDS011;4940;50.900;4.672;2023-04-25T05:57:40;18.95;;;13.32;;
9801;SDS011;4940;50.900;4.672;2023-04-25T06:00:12;16.65;;;14.60;;
9801;SDS011;4940;50.900;4.672;2023-04-25T06:02:41;16.27;;;14.82;;
9801;SDS011;4940;50.900;4.672;2023-04-25T06:05:08;15.38;;;13.85;;
9801;SDS011;4940;50.900;4.672;2023-04-25T06:07:36;17.60;;;15.82;;
9801;SDS011;4940;50.900;4.672;2023-04-25T06:10:04;18.27;;;16.05;;
9801;SDS011;4940;50.900;4.672;2023-04-25T06:12:32;17.48;;;15.73;;
9801;SDS011;4940;50.900;4.672;2023-04-25T06:15:01;19.67;;;17.92;;
9801;SDS011;4940;50.900;4.672;2023-04-25T06:17:28;20.88;;;18.50;;
9801;SDS011;4940;50.900;4.672;2023-04-25T06:19:56;22.88;;;20.55;;
9801;SDS011;4940;50.900;4.672;2023-04-25T06:22:23;22.38;;;20.58;;
9801;SDS011;4940;50.900;4.672;2023-04-25T06:24:51;24.40;;;20.40;;
9801;SDS011;4940;50.900;4.672;2023-04-25T06:27:18;21.60;;;19.65;;
9801;SDS011;4940;50.900;4.672;2023-04-25T06:29:46;20.80;;;19.08;;
9801;SDS011;4940;50.900;4.672;2023-04-25T06:32:14;21.60;;;19.67;;
9801;SDS011;4940;50.900;4.672;2023-04-25T06:34:43;19.02;;;17.02;;
9801;SDS011;4940;50.900;4.672;2023-04-25T06:37:10;18.05;;;16.33;;
9801;SDS011;4940;50.900;4.672;2023-04-25T06:39:38;17.77;;;14.93;;
9801;SDS011;4940;50.900;4.672;2023-04-25T06:42:05;16.85;;;14.93;;
9801;SDS011;4940;50.900;4.672;2023-04-25T06:44:33;15.05;;;13.73;;
9801;SDS011;4940;50.900;4.672;2023-04-25T06:47:01;17.55;;;13.45;;
9801;SDS011;4940;50.900;4.672;2023-04-25T06:49:29;14.48;;;13.07;;
9801;SDS011;4940;50.900;4.672;2023-04-25T06:51:57;15.75;;;11.85;;
9801;SDS011;4940;50.900;4.672;2023-04-25T06:54:24;14.50;;;13.02;;
9801;SDS011;4940;50.900;4.672;2023-04-25T06:56:54;17.38;;;13.85;;
9801;SDS011;4940;50.900;4.672;2023-04-25T06:59:22;17.95;;;13.45;;
9801;SDS011;4940;50.900;4.672;2023-04-25T07:01:49;13.43;;;9.88;;
9801;SDS011;4940;50.900;4.672;2023-04-25T07:04:17;15.57;;;8.52;;
9801;SDS011;4940;50.900;4.672;2023-04-25T07:06:45;11.73;;;8.25;;
9801;SDS011;4940;50.900;4.672;2023-04-25T07:09:13;8.10;;;6.47;;
9801;SDS011;4940;50.900;4.672;2023-04-25T07:11:41;10.80;;;6.65;;
9801;SDS011;4940;50.900;4.672;2023-04-25T07:14:08;14.13;;;6.70;;
9801;SDS011;4940;50.900;4.672;2023-04-25T07:16:35;8.00;;;4.47;;
9801;SDS011;4940;50.900;4.672;2023-04-25T07:19:03;8.02;;;4.40;;
9801;SDS011;4940;50.900;4.672;2023-04-25T07:21:30;8.23;;;4.22;;
9801;SDS011;4940;50.900;4.672;2023-04-25T07:23:59;7.25;;;3.40;;
9801;SDS011;4940;50.900;4.672;2023-04-25T07:26:26;9.43;;;3.97;;
9801;SDS011;4940;50.900;4.672;2023-04-25T07:28:54;10.88;;;3.88;;
9801;SDS011;4940;50.900;4.672;2023-04-25T07:31:21;9.13;;;3.70;;
9801;SDS011;4940;50.900;4.672;2023-04-25T07:33:49;15.38;;;3.38;;
9801;SDS011;4940;50.900;4.672;2023-04-25T07:36:17;8.27;;;3.05;;
9801;SDS011;4940;50.900;4.672;2023-04-25T07:38:44;10.20;;;3.03;;
9801;SDS011;4940;50.900;4.672;2023-04-25T07:41:13;9.50;;;3.30;;
9801;SDS011;4940;50.900;4.672;2023-04-25T07:43:40;9.18;;;3.45;;
9801;SDS011;4940;50.900;4.672;2023-04-25T07:46:07;10.13;;;3.22;;
9801;SDS011;4940;50.900;4.672;2023-04-25T07:48:35;12.30;;;3.50;;
9801;SDS011;4940;50.900;4.672;2023-04-25T07:51:02;11.63;;;3.17;;
9801;SDS011;4940;50.900;4.672;2023-04-25T07:53:30;7.85;;;3.20;;
9801;SDS011;4940;50.900;4.672;2023-04-25T07:56:00;10.20;;;3.10;;
9801;SDS011;4940;50.900;4.672;2023-04-25T07:58:28;6.93;;;2.60;;
9801;SDS011;4940;50.900;4.672;2023-04-25T08:00:55;12.85;;;3.50;;
9801;SDS011;4940;50.900;4.672;2023-04-25T08:03:23;7.90;;;2.92;;
9801;SDS011;4940;50.900;4.672;2023-04-25T08:05:50;8.40;;;3.08;;
9801;SDS011;4940;50.900;4.672;2023-04-25T08:08:18;8.38;;;2.45;;
9801;SDS011;4940;50.900;4.672;2023-04-25T08:10:45;12.48;;;3.00;;
9801;SDS011;4940;50.900;4.672;2023-04-25T08:13:13;8.65;;;3.20;;
9801;SDS011;4940;50.900;4.672;2023-04-25T08:15:42;6.25;;;2.53;;
9801;SDS011;4940;50.900;4.672;2023-04-25T08:18:09;7.10;;;2.70;;
9801;SDS011;4940;50.900;4.672;2023-04-25T08:20:37;7.75;;;2.85;;
9801;SDS011;4940;50.900;4.672;2023-04-25T08:23:05;7.03;;;2.70;;
9801;SDS011;4940;50.900;4.672;2023-04-25T08:25:33;5.85;;;2.47;;
9801;SDS011;4940;50.900;4.672;2023-04-25T08:28:00;10.30;;;2.65;;
9801;SDS011;4940;50.900;4.672;2023-04-25T08:30:28;5.97;;;2.08;;
9801;SDS011;4940;50.900;4.672;2023-04-25T08:32:57;10.57;;;2.00;;
9801;SDS011;4940;50.900;4.672;2023-04-25T08:35:24;7.05;;;2.40;;
9801;SDS011;4940;50.900;4.672;2023-04-25T08:37:52;5.07;;;2.17;;
9801;SDS011;4940;50.900;4.672;2023-04-25T08:40:19;7.53;;;2.40;;
9801;SDS011;4940;50.900;4.672;2023-04-25T08:42:51;10.30;;;2.80;;
9801;SDS011;4940;50.900;4.672;2023-04-25T08:45:20;7.18;;;2.03;;
9801;SDS011;4940;50.900;4.672;2023-04-25T08:47:48;3.45;;;2.00;;
9801;SDS011;4940;50.900;4.672;2023-04-25T08:50:21;5.22;;;2.00;;
9801;SDS011;4940;50.900;4.672;2023-04-25T08:52:51;5.47;;;2.10;;
9801;SDS011;4940;50.900;4.672;2023-04-25T08:55:20;8.10;;;2.63;;
9801;SDS011;4940;50.900;4.672;2023-04-25T08:57:48;6.32;;;2.05;;
9801;SDS011;4940;50.900;4.672;2023-04-25T09:00:17;5.93;;;1.90;;
9801;SDS011;4940;50.900;4.672;2023-04-25T09:02:45;6.63;;;2.38;;
9801;SDS011;4940;50.900;4.672;2023-04-25T09:05:16;7.68;;;2.10;;
9801;SDS011;4940;50.900;4.672;2023-04-25T09:07:46;6.60;;;1.98;;
9801;SDS011;4940;50.900;4.672;2023-04-25T09:10:13;3.30;;;1.70;;
9801;SDS011;4940;50.900;4.672;2023-04-25T09:12:40;4.93;;;1.60;;
9801;SDS011;4940;50.900;4.672;2023-04-25T09:15:08;6.00;;;1.75;;
9801;SDS011;4940;50.900;4.672;2023-04-25T09:17:36;3.85;;;1.77;;
9801;SDS011;4940;50.900;4.672;2023-04-25T09:20:06;6.00;;;1.77;;
9801;SDS011;4940;50.900;4.672;2023-04-25T09:22:34;6.75;;;2.10;;
9801;SDS011;4940;50.900;4.672;2023-04-25T09:25:07;4.43;;;1.90;;
9801;SDS011;4940;50.900;4.672;2023-04-25T09:27:35;8.07;;;2.30;;
9801;SDS011;4940;50.900;4.672;2023-04-25T09:30:03;4.07;;;1.60;;
9801;SDS011;4940;50.900;4.672;2023-04-25T09:32:31;4.07;;;1.75;;
9801;SDS011;4940;50.900;4.672;2023-04-25T09:34:59;5.43;;;1.70;;
9801;SDS011;4940;50.900;4.672;2023-04-25T09:37:26;5.13;;;1.80;;
9801;SDS011;4940;50.900;4.672;2023-04-25T09:39:55;5.78;;;1.63;;
9801;SDS011;4940;50.900;4.672;2023-04-25T09:42:26;5.47;;;1.58;;
9801;SDS011;4940;50.900;4.672;2023-04-25T09:44:54;4.00;;;1.60;;
9801;SDS011;4940;50.900;4.672;2023-04-25T09:47:22;5.55;;;2.13;;
9801;SDS011;4940;50.900;4.672;2023-04-25T09:49:51;8.15;;;1.60;;
9801;SDS011;4940;50.900;4.672;2023-04-25T09:52:19;5.88;;;1.65;;
9801;SDS011;4940;50.900;4.672;2023-04-25T09:54:47;5.40;;;1.70;;
9801;SDS011;4940;50.900;4.672;2023-04-25T09:57:16;2.08;;;1.63;;
9801;SDS011;4940;50.900;4.672;2023-04-25T09:59:45;4.28;;;1.60;;
9801;SDS011;4940;50.900;4.672;2023-04-25T10:02:14;5.57;;;1.30;;
9801;SDS011;4940;50.900;4.672;2023-04-25T10:04:44;4.05;;;1.20;;
9801;SDS011;4940;50.900;4.672;2023-04-25T10:07:14;5.50;;;1.30;;
9801;SDS011;4940;50.900;4.672;2023-04-25T10:09:41;2.22;;;1.00;;
9801;SDS011;4940;50.900;4.672;2023-04-25T10:12:11;4.50;;;1.35;;
9801;SDS011;4940;50.900;4.672;2023-04-25T10:14:39;4.65;;;1.10;;
9801;SDS011;4940;50.900;4.672;2023-04-25T10:17:08;2.55;;;1.02;;
9801;SDS011;4940;50.900;4.672;2023-04-25T10:19:37;3.13;;;1.05;;
9801;SDS011;4940;50.900;4.672;2023-04-25T10:22:07;2.50;;;0.90;;
9801;SDS011;4940;50.900;4.672;2023-04-25T10:24:38;2.75;;;1.20;;
9801;SDS011;4940;50.900;4.672;2023-04-25T10:27:06;5.30;;;1.25;;
9801;SDS011;4940;50.900;4.672;2023-04-25T10:29:34;2.03;;;1.05;;
9801;SDS011;4940;50.900;4.672;2023-04-25T10:32:02;2.78;;;0.90;;
9801;SDS011;4940;50.900;4.672;2023-04-25T10:34:41;2.38;;;1.45;;
9801;SDS011;4940;50.900;4.672;2023-04-25T10:37:12;2.85;;;1.10;;
9801;SDS011;4940;50.900;4.672;2023-04-25T10:39:39;4.72;;;1.00;;
9801;SDS011;4940;50.900;4.672;2023-04-25T10:42:08;4.38;;;1.10;;
9801;SDS011;4940;50.900;4.672;2023-04-25T10:44:36;2.50;;;1.10;;
9801;SDS011;4940;50.900;4.672;2023-04-25T10:47:06;2.78;;;0.95;;
9801;SDS011;4940;50.900;4.672;2023-04-25T10:49:34;2.95;;;1.05;;
9801;SDS011;4940;50.900;4.672;2023-04-25T10:52:14;4.25;;;0.90;;
9801;SDS011;4940;50.900;4.672;2023-04-25T10:54:49;3.10;;;1.10;;
9801;SDS011;4940;50.900;4.672;2023-04-25T10:57:28;3.30;;;1.10;;
9801;SDS011;4940;50.900;4.672;2023-04-25T11:00:00;3.47;;;1.20;;
9801;SDS011;4940;50.900;4.672;2023-04-25T11:02:31;2.53;;;1.23;;
9801;SDS011;4940;50.900;4.672;2023-04-25T11:04:59;2.08;;;1.10;;
9801;SDS011;4940;50.900;4.672;2023-04-25T11:07:31;3.00;;;1.48;;
9801;SDS011;4940;50.900;4.672;2023-04-25T11:10:03;4.72;;;1.25;;
9801;SDS011;4940;50.900;4.672;2023-04-25T11:12:31;2.08;;;1.25;;
9801;SDS011;4940;50.900;4.672;2023-04-25T11:14:59;3.08;;;1.52;;
9801;SDS011;4940;50.900;4.672;2023-04-25T11:17:27;5.85;;;1.42;;
9801;SDS011;4940;50.900;4.672;2023-04-25T11:19:55;2.03;;;1.40;;
9801;SDS011;4940;50.900;4.672;2023-04-25T11:22:23;2.88;;;1.35;;
9801;SDS011;4940;50.900;4.672;2023-04-25T11:24:52;5.40;;;1.77;;
9801;SDS011;4940;50.900;4.672;2023-04-25T11:27:19;6.00;;;1.60;;
9801;SDS011;4940;50.900;4.672;2023-04-25T11:29:49;1.83;;;1.30;;
9801;SDS011;4940;50.900;4.672;2023-04-25T11:32:17;3.20;;;1.33;;
9801;SDS011;4940;50.900;4.672;2023-04-25T11:34:45;4.25;;;1.45;;
9801;SDS011;4940;50.900;4.672;2023-04-25T11:37:13;1.60;;;1.10;;
9801;SDS011;4940;50.900;4.672;2023-04-25T11:39:44;4.40;;;1.20;;
9801;SDS011;4940;50.900;4.672;2023-04-25T11:42:13;3.60;;;1.17;;
9801;SDS011;4940;50.900;4.672;2023-04-25T11:44:40;4.55;;;1.48;;
9801;SDS011;4940;50.900;4.672;2023-04-25T11:47:08;5.20;;;1.30;;
9801;SDS011;4940;50.900;4.672;2023-04-25T11:49:35;2.92;;;1.63;;
9801;SDS011;4940;50.900;4.672;2023-04-25T11:52:03;3.03;;;1.70;;
9801;SDS011;4940;50.900;4.672;2023-04-25T11:54:35;5.97;;;1.70;;
9801;SDS011;4940;50.900;4.672;2023-04-25T11:57:02;4.07;;;1.38;;
9801;SDS011;4940;50.900;4.672;2023-04-25T11:59:31;3.55;;;1.45;;
9801;SDS011;4940;50.900;4.672;2023-04-25T12:01:58;3.13;;;1.33;;
9801;SDS011;4940;50.900;4.672;2023-04-25T12:04:29;6.45;;;1.80;;
9801;SDS011;4940;50.900;4.672;2023-04-25T12:06:57;4.13;;;1.77;;
9801;SDS011;4940;50.900;4.672;2023-04-25T12:09:30;3.88;;;1.40;;
9801;SDS011;4940;50.900;4.672;2023-04-25T12:11:58;6.25;;;1.80;;
9801;SDS011;4940;50.900;4.672;2023-04-25T12:14:28;2.97;;;1.35;;
9801;SDS011;4940;50.900;4.672;2023-04-25T12:16:58;4.68;;;1.38;;
9801;SDS011;4940;50.900;4.672;2023-04-25T12:19:31;5.03;;;1.77;;
9801;SDS011;4940;50.900;4.672;2023-04-25T12:21:59;3.85;;;1.45;;
9801;SDS011;4940;50.900;4.672;2023-04-25T12:24:28;3.88;;;1.35;;
9801;SDS011;4940;50.900;4.672;2023-04-25T12:26:58;4.18;;;1.80;;
9801;SDS011;4940;50.900;4.672;2023-04-25T12:29:27;2.95;;;1.45;;
9801;SDS011;4940;50.900;4.672;2023-04-25T12:31:55;3.35;;;1.50;;
9801;SDS011;4940;50.900;4.672;2023-04-25T12:34:25;2.15;;;1.35;;
9801;SDS011;4940;50.900;4.672;2023-04-25T12:36:52;1.98;;;1.17;;
9801;SDS011;4940;50.900;4.672;2023-04-25T12:39:20;1.52;;;1.00;;
9801;SDS011;4940;50.900;4.672;2023-04-25T12:41:48;3.92;;;1.55;;
9801;SDS011;4940;50.900;4.672;2023-04-25T12:44:16;2.70;;;1.20;;
9801;SDS011;4940;50.900;4.672;2023-04-25T12:46:43;2.90;;;1.27;;
9801;SDS011;4940;50.900;4.672;2023-04-25T12:49:12;1.73;;;1.08;;
9801;SDS011;4940;50.900;4.672;2023-04-25T12:51:39;8.23;;;1.17;;
9801;SDS011;4940;50.900;4.672;2023-04-25T12:54:06;2.60;;;1.10;;
9801;SDS011;4940;50.900;4.672;2023-04-25T12:56:34;1.25;;;1.05;;
9801;SDS011;4940;50.900;4.672;2023-04-25T12:59:02;3.13;;;1.27;;
9801;SDS011;4940;50.900;4.672;2023-04-25T13:01:29;3.08;;;1.10;;
9801;SDS011;4940;50.900;4.672;2023-04-25T13:03:57;1.33;;;1.00;;
9801;SDS011;4940;50.900;4.672;2023-04-25T13:06:25;5.15;;;0.93;;
9801;SDS011;4940;50.900;4.672;2023-04-25T13:08:55;1.70;;;1.08;;
9801;SDS011;4940;50.900;4.672;2023-04-25T13:11:22;1.70;;;0.93;;
9801;SDS011;4940;50.900;4.672;2023-04-25T13:13:50;2.58;;;1.10;;
9801;SDS011;4940;50.900;4.672;2023-04-25T13:16:17;4.90;;;1.20;;
9801;SDS011;4940;50.900;4.672;2023-04-25T13:18:46;3.60;;;1.40;;
9801;SDS011;4940;50.900;4.672;2023-04-25T13:21:13;4.18;;;1.20;;
9801;SDS011;4940;50.900;4.672;2023-04-25T13:23:42;3.45;;;1.00;;
9801;SDS011;4940;50.900;4.672;2023-04-25T13:26:11;3.75;;;1.00;;
9801;SDS011;4940;50.900;4.672;2023-04-25T13:28:39;2.55;;;1.30;;
9801;SDS011;4940;50.900;4.672;2023-04-25T13:31:06;2.78;;;1.23;;
9801;SDS011;4940;50.900;4.672;2023-04-25T13:33:34;2.58;;;0.98;;
9801;SDS011;4940;50.900;4.672;2023-04-25T13:36:01;3.53;;;1.38;;
9801;SDS011;4940;50.900;4.672;2023-04-25T13:38:29;2.58;;;1.42;;
9801;SDS011;4940;50.900;4.672;2023-04-25T13:40:57;3.67;;;1.23;;
9801;SDS011;4940;50.900;4.672;2023-04-25T13:43:26;4.90;;;1.48;;
9801;SDS011;4940;50.900;4.672;2023-04-25T13:45:53;5.20;;;1.30;;
9801;SDS011;4940;50.900;4.672;2023-04-25T13:48:21;4.88;;;1.20;;
9801;SDS011;4940;50.900;4.672;2023-04-25T13:50:48;1.60;;;0.80;;
9801;SDS011;4940;50.900;4.672;2023-04-25T13:53:16;2.05;;;1.00;;
9801;SDS011;4940;50.900;4.672;2023-04-25T13:55:43;4.70;;;1.30;;
9801;SDS011;4940;50.900;4.672;2023-04-25T13:58:12;3.40;;;1.10;;
9801;SDS011;4940;50.900;4.672;2023-04-25T14:00:39;4.53;;;1.45;;
9801;SDS011;4940;50.900;4.672;2023-04-25T14:03:08;1.25;;;0.98;;
9801;SDS011;4940;50.900;4.672;2023-04-25T14:05:36;1.55;;;1.10;;
9801;SDS011;4940;50.900;4.672;2023-04-25T14:08:04;2.17;;;1.02;;
9801;SDS011;4940;50.900;4.672;2023-04-25T14:10:32;2.05;;;1.13;;
9801;SDS011;4940;50.900;4.672;2023-04-25T14:13:00;2.92;;;1.52;;
9801;SDS011;4940;50.900;4.672;2023-04-25T14:15:29;2.88;;;1.30;;
9801;SDS011;4940;50.900;4.672;2023-04-25T14:17:57;3.53;;;1.20;;
9801;SDS011;4940;50.900;4.672;2023-04-25T14:20:25;7.85;;;1.50;;
9801;SDS011;4940;50.900;4.672;2023-04-25T14:22:53;2.88;;;1.15;;
9801;SDS011;4940;50.900;4.672;2023-04-25T14:25:21;3.72;;;1.05;;
9801;SDS011;4940;50.900;4.672;2023-04-25T14:27:48;3.08;;;1.17;;
9801;SDS011;4940;50.900;4.672;2023-04-25T14:30:16;2.60;;;0.98;;
9801;SDS011;4940;50.900;4.672;2023-04-25T14:32:45;4.35;;;1.00;;
9801;SDS011;4940;50.900;4.672;2023-04-25T14:35:12;3.28;;;1.17;;
9801;SDS011;4940;50.900;4.672;2023-04-25T14:37:40;1.85;;;1.00;;
9801;SDS011;4940;50.900;4.672;2023-04-25T14:40:07;3.00;;;0.93;;
9801;SDS011;4940;50.900;4.672;2023-04-25T14:42:37;3.38;;;1.15;;
9801;SDS011;4940;50.900;4.672;2023-04-25T14:45:05;1.73;;;0.77;;
9801;SDS011;4940;50.900;4.672;2023-04-25T14:47:33;2.55;;;0.98;;
9801;SDS011;4940;50.900;4.672;2023-04-25T14:50:02;2.70;;;1.02;;
9801;SDS011;4940;50.900;4.672;2023-04-25T14:52:30;6.80;;;1.10;;
9801;SDS011;4940;50.900;4.672;2023-04-25T14:54:57;2.00;;;0.82;;
9801;SDS011;4940;50.900;4.672;2023-04-25T14:57:25;3.95;;;1.10;;
9801;SDS011;4940;50.900;4.672;2023-04-25T14:59:53;3.83;;;1.30;;
9801;SDS011;4940;50.900;4.672;2023-04-25T15:02:20;2.50;;;0.90;;
9801;SDS011;4940;50.900;4.672;2023-04-25T15:04:47;5.88;;;1.20;;
9801;SDS011;4940;50.900;4.672;2023-04-25T15:07:16;4.30;;;1.10;;
9801;SDS011;4940;50.900;4.672;2023-04-25T15:09:43;2.20;;;1.10;;
9801;SDS011;4940;50.900;4.672;2023-04-25T15:12:11;4.78;;;1.05;;
9801;SDS011;4940;50.900;4.672;2023-04-25T15:14:40;2.83;;;1.20;;